KMGY/MGY METAR and TAF weather

Enter ICAO airport designator
Station Type Date Time Source
KMGY METAR 2019/06/17 15:32 UTC NOAA

KMGY 171532Z AUTO 20006KT 10SM SCT011 BKN060 BKN070 23/19 A3000 RMK AO2 T02330194


Station Type Date Time Source
KMGY Decoded METAR 2019/06/17 15:32 UTC NOAA

DAYTON WRIGHT BROTHERS AIRPORT , OH, United States (KMGY) 39-36N 84-14W 289M
Jun 17, 2019 - 11:32 AM EDT / 2019.06.17 1532 UTC
Wind: from the SSW (200 degrees) at 7 MPH (6 KT):0
Visibility: 10 mile(s):0
Sky conditions: mostly cloudy
Temperature: 73.9 F (23.3 C)
Dew Point: 66.9 F (19.4 C)
Relative Humidity: 78%
Pressure (altimeter): 30 in. Hg (1015 hPa)
ob: KMGY 171532Z AUTO 20006KT 10SM SCT011 BKN060 BKN070 23/19 A3000 RMK AO2 T02330194
cycle: 15

Station Type Date Time Source
KMGY TAF UTC NOAA

Error!

Example: see airport list